Time;durP1;ratioP1;P1;durP2;ratioP2;P2;SDS_P1;SDS_P2;PMS_P1;PMS_P2;Temp;Humidity;BMP_temperature;BMP_pressure;BME280_temperature;BME280_humidity;BME280_pressure;Samples;Min_cycle;Max_cycle;Signal;HPM_P1;HPM_P2
2022/06/16 00:02:01;;;;;;;;;18.33;15.67;;;;;21.99;50.09;101257.50;5079291;27;45533;-73
2022/06/16 00:04:26;;;;;;;;;14.00;14.00;;;;;21.97;49.77;101258.81;5101946;27;45365;-73
2022/06/16 00:06:53;;;;;;;;;17.33;17.33;;;;;21.89;50.03;101262.69;5085906;27;45426;-73
2022/06/16 00:09:19;;;;;;;;;15.00;15.00;;;;;21.85;50.21;101262.34;5080712;28;45401;-73
2022/06/16 00:11:44;;;;;;;;;15.67;14.33;;;;;21.77;50.98;101260.03;5079763;27;45289;-73
2022/06/16 00:14:10;;;;;;;;;15.67;15.67;;;;;21.70;50.73;101255.53;5080242;27;45371;-73
2022/06/16 00:16:36;;;;;;;;;16.00;16.00;;;;;21.66;51.26;101262.47;5091879;27;45429;-73
2022/06/16 00:19:01;;;;;;;;;15.67;15.67;;;;;21.69;51.28;101278.22;5074403;28;46251;-73
2022/06/16 00:21:26;;;;;;;;;13.33;13.33;;;;;21.61;51.25;101270.44;5079384;27;45584;-73
2022/06/16 00:23:52;;;;;;;;;16.00;16.00;;;;;21.57;51.04;101269.28;5080874;27;45275;-73
2022/06/16 00:26:23;;;;;;;;;15.67;14.33;;;;;21.49;51.33;101264.25;5080330;27;45450;-73
2022/06/16 00:28:50;;;;;;;;;14.67;14.67;;;;;21.49;51.24;101273.16;5079130;27;45495;-73
2022/06/16 00:31:18;;;;;;;;;16.00;14.00;;;;;21.46;51.37;101278.22;5078835;27;45279;-73
2022/06/16 00:33:44;;;;;;;;;16.67;14.00;;;;;21.34;51.57;101275.53;5078946;27;45370;-73
2022/06/16 00:36:10;;;;;;;;;15.67;15.67;;;;;21.36;52.21;101289.59;5079248;27;45331;-73
2022/06/16 00:38:36;;;;;;;;;17.33;16.00;;;;;21.31;52.10;101295.75;5080382;27;45366;-73
2022/06/16 00:41:02;;;;;;;;;19.00;17.67;;;;;21.17;52.66;101282.44;5078687;27;45303;-73
2022/06/16 00:43:28;;;;;;;;;18.00;17.00;;;;;21.10;52.87;101278.19;5078597;27;45344;-73
2022/06/16 00:46:06;;;;;;;;;17.00;17.00;;;;;21.05;53.34;101282.44;5075816;28;45253;-73
2022/06/16 00:48:36;;;;;;;;;19.00;19.00;;;;;21.08;53.14;101305.44;5067822;28;45223;-72
2022/06/16 00:51:04;;;;;;;;;17.33;17.33;;;;;21.05;53.20;101300.50;5080917;28;48033;-73
2022/06/16 00:53:30;;;;;;;;;16.67;16.67;;;;;21.00;53.23;101317.41;5082084;28;45391;-73
2022/06/16 00:55:56;;;;;;;;;16.67;16.00;;;;;20.96;53.67;101307.28;5082311;27;45407;-73
2022/06/16 00:58:24;;;;;;;;;16.00;16.00;;;;;20.97;53.35;101320.56;5081775;27;45473;-73
2022/06/16 01:00:51;;;;;;;;;15.67;15.67;;;;;20.81;53.27;101306.59;5080837;28;47992;-73
2022/06/16 01:04:51;;;;;;;;;17.00;17.00;;;;;20.85;53.88;101311.56;5080835;28;45341;-73
2022/06/16 01:06:18;;;;;;;;;16.67;16.67;;;;;20.76;54.38;101314.59;5091242;27;45303;-73
2022/06/16 01:08:44;;;;;;;;;19.00;18.67;;;;;20.70;54.16;101318.22;5082275;27;45349;-73
2022/06/16 01:14:19;;;;;;;;;17.33;15.67;;;;;20.52;54.87;101303.69;5081842;28;45372;-73
2022/06/16 01:16:50;;;;;;;;;15.67;15.67;;;;;20.58;55.10;101320.84;5082070;27;45224;-73
2022/06/16 01:19:54;;;;;;;;;18.33;18.00;;;;;20.54;54.86;101334.00;5082064;27;45284;-73
2022/06/16 01:23:02;;;;;;;;;20.00;20.00;;;;;20.50;55.16;101346.28;5059317;28;46277;-73
2022/06/16 01:25:59;;;;;;;;;17.33;17.00;;;;;20.45;55.11;101343.44;5058360;28;45443;-72
2022/06/16 01:28:32;;;;;;;;;17.67;17.67;;;;;20.30;55.56;101323.03;5081889;27;45693;-73
2022/06/16 01:31:23;;;;;;;;;18.67;18.67;;;;;20.36;55.58;101348.34;5081380;27;45418;-73
2022/06/16 01:33:53;;;;;;;;;17.33;17.33;;;;;20.33;55.51;101342.53;5081392;27;46435;-74
2022/06/16 01:36:28;;;;;;;;;17.00;17.00;;;;;20.33;55.78;101343.38;5080490;27;45454;-73
2022/06/16 01:39:01;;;;;;;;;17.33;16.33;;;;;20.37;55.72;101349.97;5081919;28;45468;-73
2022/06/16 01:41:30;;;;;;;;;16.00;16.00;;;;;20.39;55.71;101352.44;5081522;27;45355;-73
2022/06/16 01:44:03;;;;;;;;;17.00;16.33;;;;;20.35;55.61;101341.25;5081255;28;45356;-73
2022/06/16 01:46:32;;;;;;;;;20.33;20.00;;;;;20.39;55.81;101344.34;5081804;27;45392;-73
2022/06/16 01:49:02;;;;;;;;;18.33;18.33;;;;;20.49;55.51;101357.31;5081694;27;45550;-73
2022/06/16 01:51:34;;;;;;;;;17.00;16.67;;;;;20.43;55.56;101354.47;5081469;28;45460;-73
2022/06/16 01:54:13;;;;;;;;;23.00;20.67;;;;;20.54;55.43;101362.88;5081373;28;46476;-73
2022/06/16 01:56:48;;;;;;;;;20.33;20.00;;;;;20.50;55.51;101362.47;5081321;27;45289;-73
2022/06/16 01:59:24;;;;;;;;;18.33;17.67;;;;;20.59;55.55;101368.41;5081132;27;45314;-73
2022/06/16 02:01:57;;;;;;;;;18.00;18.00;;;;;20.60;55.44;101369.22;5079807;28;45947;-73
2022/06/16 02:04:32;;;;;;;;;19.33;18.67;;;;;20.53;55.28;101361.22;5086504;27;46121;-73
2022/06/16 02:07:05;;;;;;;;;17.67;17.00;;;;;20.56;55.73;101371.53;5083346;27;45461;-74
2022/06/16 02:09:36;;;;;;;;;21.00;18.67;;;;;20.54;55.79;101379.06;5081406;27;45414;-73
2022/06/16 02:12:05;;;;;;;;;15.00;15.00;;;;;20.40;55.63;101364.88;5080747;27;45545;-73
2022/06/16 02:14:43;;;;;;;;;18.67;18.67;;;;;20.30;55.70;101366.22;5081042;28;47884;-72
2022/06/16 02:17:09;;;;;;;;;17.33;16.00;;;;;20.33;56.25;101380.34;5080955;27;45262;-73
2022/06/16 02:19:36;;;;;;;;;17.33;17.33;;;;;20.21;56.45;101374.84;5081261;27;45369;-73
2022/06/16 02:22:02;;;;;;;;;19.67;19.33;;;;;20.18;56.65;101385.03;5080857;27;45479;-73
2022/06/16 02:24:30;;;;;;;;;18.33;17.33;;;;;20.06;56.41;101387.66;5081264;27;45479;-73
2022/06/16 02:26:58;;;;;;;;;21.00;18.67;;;;;19.97;56.86;101382.75;5080556;27;45382;-73
2022/06/16 02:29:38;;;;;;;;;21.33;20.67;;;;;19.96;57.35;101387.28;5081956;27;45295;-74
2022/06/16 02:32:15;;;;;;;;;20.33;19.67;;;;;19.89;57.84;101387.38;5079219;28;46240;-74
2022/06/16 02:34:57;;;;;;;;;19.33;19.33;;;;;19.83;57.63;101395.50;5080618;27;45392;-73
2022/06/16 02:38:00;;;;;;;;;19.33;19.00;;;;;19.75;57.85;101394.75;5080635;27;45431;-74
2022/06/16 02:40:40;;;;;;;;;20.67;20.00;;;;;19.69;58.00;101392.91;5081063;28;45338;-73
2022/06/16 02:43:35;;;;;;;;;21.00;18.67;;;;;19.63;58.57;101389.25;5080849;27;45816;-73
2022/06/16 02:46:24;;;;;;;;;18.00;17.33;;;;;19.58;59.20;101386.38;5097124;27;48127;-73
2022/06/16 02:49:10;;;;;;;;;22.00;20.67;;;;;19.55;59.33;101389.53;5080722;28;45291;-73
2022/06/16 02:51:45;;;;;;;;;23.33;22.33;;;;;19.47;59.10;101379.81;5081273;27;45419;-73
2022/06/16 02:54:27;;;;;;;;;20.67;20.67;;;;;19.53;59.41;101388.91;5080288;27;45401;-73
2022/06/16 02:57:02;;;;;;;;;21.00;20.33;;;;;19.52;59.51;101396.16;5079929;28;45336;-73
2022/06/16 02:59:53;;;;;;;;;18.33;18.00;;;;;19.48;59.77;101394.94;5078824;28;45735;-73
2022/06/16 03:02:21;;;;;;;;;18.67;18.67;;;;;19.43;59.75;101390.19;5080601;27;45396;-73
2022/06/16 03:04:50;;;;;;;;;22.00;20.67;;;;;19.33;59.90;101384.47;5087542;27;46149;-73
2022/06/16 03:07:15;;;;;;;;;19.00;18.33;;;;;19.29;59.99;101386.78;5064612;28;46426;-73
2022/06/16 03:09:41;;;;;;;;;21.33;19.67;;;;;19.27;60.22;101396.09;5078367;28;45918;-73
2022/06/16 03:12:09;;;;;;;;;22.33;21.00;;;;;19.23;60.52;101406.50;5079422;27;45377;-73
2022/06/16 03:14:34;;;;;;;;;23.67;23.67;;;;;19.10;60.70;101395.81;5080149;27;45556;-73
2022/06/16 03:17:01;;;;;;;;;21.33;21.33;;;;;19.08;61.03;101401.41;5079803;27;45950;-73
2022/06/16 03:19:26;;;;;;;;;20.00;20.00;;;;;19.05;60.86;101399.94;5080406;27;45318;-73
2022/06/16 03:21:52;;;;;;;;;22.67;21.67;;;;;19.03;61.31;101401.19;5080098;27;45318;-73
2022/06/16 03:24:17;;;;;;;;;24.00;22.00;;;;;18.96;60.93;101406.63;5080032;27;45324;-72
2022/06/16 03:26:43;;;;;;;;;18.00;18.00;;;;;18.95;61.73;101409.53;5079922;27;45434;-73
2022/06/16 03:29:08;;;;;;;;;19.33;18.67;;;;;18.90;61.61;101413.69;5079621;27;45410;-73
2022/06/16 03:31:34;;;;;;;;;24.00;23.00;;;;;18.91;61.62;101419.88;5080187;27;45368;-74
2022/06/16 03:34:00;;;;;;;;;25.00;23.00;;;;;18.83;61.87;101417.44;5079716;27;45207;-73
2022/06/16 03:36:25;;;;;;;;;21.67;21.67;;;;;18.81;62.23;101414.97;5079770;27;45283;-73
2022/06/16 03:38:51;;;;;;;;;22.00;21.33;;;;;18.81;62.38;101420.34;5079696;27;45230;-73
2022/06/16 03:41:16;;;;;;;;;22.67;22.33;;;;;18.80;62.37;101424.91;5079744;27;45315;-73
2022/06/16 03:43:42;;;;;;;;;25.00;24.33;;;;;18.74;62.87;101423.06;5079404;28;45239;-73
2022/06/16 03:46:08;;;;;;;;;25.33;25.33;;;;;18.78;63.13;101431.53;5079557;27;45215;-73
2022/06/16 03:48:33;;;;;;;;;24.67;23.33;;;;;18.73;62.96;101418.72;5095659;27;45944;-73
2022/06/16 03:50:59;;;;;;;;;22.33;22.33;;;;;18.74;62.78;101425.75;5095319;27;45312;-73
2022/06/16 03:53:25;;;;;;;;;23.67;22.33;;;;;18.69;62.96;101422.88;5079644;27;45328;-73
2022/06/16 03:55:50;;;;;;;;;21.67;21.67;;;;;18.71;63.32;101431.59;5077861;28;47120;-73
2022/06/16 03:58:16;;;;;;;;;22.00;21.33;;;;;18.63;63.95;101423.72;5076907;28;45817;-73
2022/06/16 04:00:42;;;;;;;;;26.00;26.00;;;;;18.61;63.91;101426.63;5080807;27;45407;-73
2022/06/16 04:05:52;;;;;;;;;21.33;21.33;;;;;18.64;64.30;101438.81;5088028;27;45821;-72
2022/06/16 04:08:19;;;;;;;;;24.67;24.67;;;;;18.55;64.31;101436.38;5079420;27;45355;-73
2022/06/16 04:10:46;;;;;;;;;22.67;22.67;;;;;18.54;64.39;101437.44;5079396;28;45310;-73
2022/06/16 04:13:11;;;;;;;;;26.67;26.33;;;;;18.53;64.64;101434.94;5079048;27;45342;-73
2022/06/16 04:15:37;;;;;;;;;25.33;25.33;;;;;18.60;64.53;101451.06;5079062;28;45212;-73
2022/06/16 04:18:03;;;;;;;;;26.67;25.00;;;;;18.55;64.91;101457.91;5079956;27;45291;-73
2022/06/16 04:20:29;;;;;;;;;27.33;27.00;;;;;18.52;64.41;101444.03;5079079;27;45302;-73
2022/06/16 04:22:55;;;;;;;;;23.67;23.67;;;;;18.59;64.93;101447.56;5075591;28;45992;-73
2022/06/16 04:25:23;;;;;;;;;25.00;25.00;;;;;18.59;64.63;101452.13;5073456;28;46967;-73
2022/06/16 04:27:49;;;;;;;;;27.33;26.67;;;;;18.58;65.04;101445.88;5082612;27;45230;-73
2022/06/16 04:30:16;;;;;;;;;26.00;25.33;;;;;18.59;65.15;101444.88;5082642;27;45239;-73
2022/06/16 04:32:43;;;;;;;;;27.33;26.00;;;;;18.51;64.99;101439.69;5098549;27;46317;-72
2022/06/16 04:35:09;;;;;;;;;28.67;24.67;;;;;18.53;65.42;101443.03;5082372;27;45385;-73
2022/06/16 04:37:35;;;;;;;;;27.33;25.00;;;;;18.58;65.65;101466.63;5075705;28;45543;-73
2022/06/16 04:40:00;;;;;;;;;25.67;25.00;;;;;18.58;65.30;101469.31;5080647;27;45278;-73
2022/06/16 04:42:26;;;;;;;;;28.67;27.00;;;;;18.54;65.59;101466.19;5083037;27;45267;-73
2022/06/16 04:44:51;;;;;;;;;26.00;25.33;;;;;18.54;66.04;101460.81;5081947;28;47364;-73
2022/06/16 04:47:17;;;;;;;;;24.67;24.67;;;;;18.55;65.91;101466.00;5083130;27;45289;-73
2022/06/16 04:49:48;;;;;;;;;25.00;24.00;;;;;18.58;66.17;101467.44;5083193;27;45325;-73
2022/06/16 04:52:14;;;;;;;;;23.00;23.00;;;;;18.61;66.63;101471.56;5082459;28;45480;-73
2022/06/16 04:54:42;;;;;;;;;26.67;26.33;;;;;18.64;66.07;101476.50;5097898;27;46628;-73
2022/06/16 04:57:07;;;;;;;;;29.33;28.33;;;;;18.68;66.14;101481.28;5082201;27;45369;-73
2022/06/16 04:59:33;;;;;;;;;28.33;27.00;;;;;18.73;66.32;101485.19;5082476;27;45362;-73
2022/06/16 05:01:58;;;;;;;;;28.67;27.33;;;;;18.71;66.06;101473.81;5080938;28;46141;-73
2022/06/16 05:04:23;;;;;;;;;30.67;29.33;;;;;18.72;65.93;101484.38;5087356;27;49411;-73
2022/06/16 05:06:49;;;;;;;;;31.33;28.00;;;;;18.70;66.00;101470.28;5085746;27;45671;-72
2022/06/16 05:09:15;;;;;;;;;34.25;30.00;;;;;18.86;66.09;101490.53;5079613;28;45337;-74
2022/06/16 05:11:40;;;;;;;;;29.67;28.67;;;;;18.78;65.68;101480.00;5078970;28;45399;-75
2022/06/16 05:14:05;;;;;;;;;34.50;30.75;;;;;18.93;65.47;101494.06;5081113;27;45379;-73
2022/06/16 05:16:31;;;;;;;;;33.25;30.50;;;;;18.96;65.64;101502.75;5077380;27;46565;-73
2022/06/16 05:18:57;;;;;;;;;37.25;31.75;;;;;19.10;65.28;101519.72;5084468;27;45220;-73
2022/06/16 05:21:22;;;;;;;;;33.50;31.00;;;;;19.11;65.50;101506.06;5084079;27;45597;-73
2022/06/16 05:23:48;;;;;;;;;33.25;31.00;;;;;19.18;64.92;101508.69;5096025;27;46901;-75
2022/06/16 05:26:13;;;;;;;;;34.50;31.50;;;;;19.21;64.72;101507.47;5083549;27;45417;-75
2022/06/16 05:28:39;;;;;;;;;36.25;31.75;;;;;19.24;64.22;101510.56;5087586;27;45468;-74
2022/06/16 05:31:05;;;;;;;;;36.50;30.75;;;;;19.36;63.97;101523.38;5099603;27;44790;-75
2022/06/16 05:33:30;;;;;;;;;35.50;32.50;;;;;19.42;63.48;101527.88;5095763;27;45984;-75
2022/06/16 05:36:00;;;;;;;;;36.67;31.00;;;;;19.46;64.01;101525.59;5084950;27;45471;-75
2022/06/16 05:38:26;;;;;;;;;30.33;29.33;;;;;19.50;63.39;101538.44;5085699;27;45272;-74
2022/06/16 05:40:56;;;;;;;;;31.67;29.67;;;;;19.57;63.61;101548.34;5098619;27;45372;-75
2022/06/16 05:43:21;;;;;;;;;32.00;30.67;;;;;19.55;63.28;101541.28;5082670;27;45338;-75
2022/06/16 05:45:47;;;;;;;;;35.00;31.50;;;;;19.59;63.06;101547.09;5097824;27;45402;-75
2022/06/16 05:48:12;;;;;;;;;28.67;26.67;;;;;19.66;62.73;101553.28;5098807;27;45524;-75
2022/06/16 05:50:37;;;;;;;;;37.25;32.75;;;;;19.74;62.60;101568.38;5078362;27;47645;-75
2022/06/16 05:53:03;;;;;;;;;33.33;29.67;;;;;19.75;62.61;101567.31;5087374;27;46246;-75
2022/06/16 05:55:28;;;;;;;;;34.50;31.25;;;;;19.80;62.74;101574.78;5088755;27;45350;-74
2022/06/16 05:57:53;;;;;;;;;35.67;31.00;;;;;19.76;62.22;101579.78;5085808;27;45648;-74
2022/06/16 06:00:19;;;;;;;;;35.67;30.67;;;;;19.84;62.73;101594.06;5094631;28;46082;-74
2022/06/16 06:02:44;;;;;;;;;34.33;30.33;;;;;19.87;62.59;101594.44;5092318;27;45288;-75
2022/06/16 06:05:11;;;;;;;;;35.33;31.33;;;;;19.97;62.76;101593.97;5103916;27;45553;-74
2022/06/16 06:18:40;;;;;;;;;34.67;30.00;;;;;20.24;61.78;101601.94;5084133;28;44684;-78
2022/06/16 06:21:05;;;;;;;;;33.00;29.67;;;;;20.30;61.70;101600.22;5096686;28;46250;-75
2022/06/16 06:23:30;;;;;;;;;36.00;31.67;;;;;20.28;60.89;101597.75;5092562;27;45064;-75
2022/06/16 06:25:56;;;;;;;;;32.00;30.00;;;;;20.34;60.57;101606.84;5093480;28;45289;-77
2022/06/16 06:28:23;;;;;;;;;34.00;30.67;;;;;20.38;60.08;101608.03;5090613;27;45350;-77
2022/06/16 06:30:49;;;;;;;;;34.33;30.33;;;;;20.40;59.81;101610.53;5095572;27;44760;-76
2022/06/16 06:33:14;;;;;;;;;30.33;29.33;;;;;20.46;59.22;101606.13;5087571;27;45365;-76
2022/06/16 06:35:40;;;;;;;;;31.33;29.67;;;;;20.51;59.57;101606.28;5090005;28;45020;-75
2022/06/16 06:38:05;;;;;;;;;30.33;29.00;;;;;20.59;59.26;101607.91;5086738;27;45273;-74
2022/06/16 06:40:33;;;;;;;;;28.33;28.00;;;;;20.63;58.66;101617.22;5081769;28;45314;-75
2022/06/16 06:42:59;;;;;;;;;32.33;29.33;;;;;20.64;58.46;101618.84;5081408;27;45402;-74
2022/06/16 06:45:25;;;;;;;;;31.67;28.67;;;;;20.69;58.26;101616.34;5079868;27;45729;-74
2022/06/16 06:47:51;;;;;;;;;28.67;28.00;;;;;20.75;57.58;101628.13;5080854;27;45670;-76
2022/06/16 06:50:30;;;;;;;;;36.00;31.67;;;;;20.79;58.13;101629.31;5087373;27;45338;-75
2022/06/16 06:52:56;;;;;;;;;21.33;21.33;;;;;20.80;57.89;101625.59;5087127;27;46110;-77
2022/06/16 06:55:22;;;;;;;;;32.00;29.33;;;;;20.86;57.70;101619.28;5085679;27;45472;-77
2022/06/16 06:57:49;;;;;;;;;34.00;30.00;;;;;20.90;57.67;101630.50;5083141;27;45478;-78
2022/06/16 07:00:16;;;;;;;;;29.33;28.00;;;;;20.99;57.41;101640.00;5082090;28;45421;-78
2022/06/16 07:02:42;;;;;;;;;27.00;27.00;;;;;21.01;57.20;101639.75;5083723;27;46374;-78
2022/06/16 07:05:08;;;;;;;;;31.33;28.33;;;;;21.09;57.00;101644.88;5091042;27;45452;-78
2022/06/16 07:07:35;;;;;;;;;28.33;27.00;;;;;21.15;56.90;101643.16;5081071;28;45679;-77
2022/06/16 07:10:00;;;;;;;;;26.33;25.67;;;;;21.22;57.14;101648.50;5085212;27;45243;-78
2022/06/16 07:12:26;;;;;;;;;28.67;27.67;;;;;21.29;56.96;101650.09;5083198;27;46109;-75
2022/06/16 07:14:51;;;;;;;;;29.00;27.67;;;;;21.34;56.62;101643.97;5090503;27;45446;-78
2022/06/16 07:17:21;;;;;;;;;27.00;26.67;;;;;21.38;56.43;101644.38;5091025;27;45350;-78
2022/06/16 07:19:47;;;;;;;;;33.00;29.00;;;;;21.41;56.26;101646.63;5085410;28;46246;-78
2022/06/16 07:22:12;;;;;;;;;24.00;24.00;;;;;21.49;56.05;101640.09;5082907;27;46390;-74
2022/06/16 07:24:38;;;;;;;;;23.67;23.67;;;;;21.60;56.25;101650.13;5090781;27;45309;-76
2022/06/16 07:27:04;;;;;;;;;24.67;24.67;;;;;21.68;55.74;101654.41;5087666;28;45228;-80
2022/06/16 07:29:30;;;;;;;;;24.67;23.00;;;;;21.70;55.52;101655.03;5084216;28;45597;-78
2022/06/16 07:31:55;;;;;;;;;27.67;27.33;;;;;21.79;55.75;101650.97;5080554;27;45327;-75
2022/06/16 07:34:21;;;;;;;;;23.33;23.33;;;;;21.95;55.40;101664.94;5080324;28;45326;-75
2022/06/16 07:36:46;;;;;;;;;26.00;26.00;;;;;22.05;54.54;101670.63;5095671;27;45402;-75
2022/06/16 07:39:12;;;;;;;;;23.67;22.00;;;;;22.18;54.34;101679.63;5079141;27;45633;-75
2022/06/16 07:41:39;;;;;;;;;23.33;21.33;;;;;22.25;53.99;101672.22;5081746;28;45434;-78
2022/06/16 07:44:10;;;;;;;;;23.00;23.00;;;;;22.33;53.89;101671.88;5082695;27;45391;-76
2022/06/16 07:46:37;;;;;;;;;21.00;20.33;;;;;22.44;53.65;101667.56;5083444;28;45248;-76
2022/06/16 07:49:07;;;;;;;;;23.67;22.33;;;;;22.60;53.92;101680.69;5080270;28;46083;-77
2022/06/16 07:51:33;;;;;;;;;21.00;21.00;;;;;22.62;52.99;101679.41;5079222;28;46281;-78
2022/06/16 07:53:59;;;;;;;;;21.33;20.67;;;;;22.74;52.44;101682.13;5082065;27;45437;-76
2022/06/16 07:56:25;;;;;;;;;49.75;40.25;;;;;22.82;52.24;101681.81;5078487;27;45366;-75
2022/06/16 07:58:50;;;;;;;;;46.75;37.00;;;;;22.88;51.81;101663.78;5091969;27;45460;-80
2022/06/16 08:01:16;;;;;;;;;19.33;16.67;;;;;22.97;51.27;101668.81;5073351;28;46033;-78
2022/06/16 08:03:42;;;;;;;;;18.67;18.33;;;;;23.10;50.83;101678.63;5081257;27;45313;-76
2022/06/16 08:06:12;;;;;;;;;22.33;19.67;;;;;23.10;50.60;101681.34;5095935;27;45416;-76
2022/06/16 08:08:38;;;;;;;;;16.67;15.67;;;;;23.25;49.78;101681.66;5083478;27;45443;-76
2022/06/16 08:11:05;;;;;;;;;17.33;17.00;;;;;23.31;49.56;101682.59;5085980;28;45450;-78
2022/06/16 08:13:31;;;;;;;;;16.67;15.67;;;;;23.29;49.02;101660.34;5092217;27;44874;-76
2022/06/16 08:15:56;;;;;;;;;17.00;17.00;;;;;23.44;48.95;101684.28;5085899;27;45367;-76
2022/06/16 08:18:25;;;;;;;;;13.00;13.00;;;;;23.46;47.83;101682.13;5086759;27;45238;-76
2022/06/16 08:20:51;;;;;;;;;15.00;15.00;;;;;23.49;47.58;101678.94;5089405;28;45389;-77
2022/06/16 08:23:17;;;;;;;;;15.67;15.67;;;;;23.52;47.56;101680.38;5097818;27;45443;-76
2022/06/16 08:25:43;;;;;;;;;13.33;13.33;;;;;23.56;47.20;101681.53;5081242;27;45505;-79
2022/06/16 08:28:12;;;;;;;;;11.33;10.33;;;;;23.64;45.65;101686.59;5081956;28;47064;-78
2022/06/16 08:30:41;;;;;;;;;11.33;11.33;;;;;23.71;45.14;101691.88;5084773;27;46371;-76
2022/06/16 08:33:09;;;;;;;;;12.67;12.67;;;;;23.74;45.47;101685.16;5086602;27;45386;-75
2022/06/16 08:35:34;;;;;;;;;11.67;11.00;;;;;23.82;45.12;101699.16;5077630;27;45241;-78
2022/06/16 08:38:00;;;;;;;;;10.00;10.00;;;;;23.88;43.82;101696.56;5067786;28;45225;-76
2022/06/16 08:40:26;;;;;;;;;13.00;12.00;;;;;23.95;42.96;101703.47;5078658;27;45957;-78
2022/06/16 08:42:57;;;;;;;;;13.67;13.67;;;;;23.99;42.80;101684.81;5079983;28;45420;-78
2022/06/16 08:45:38;;;;;;;;;12.33;11.00;;;;;24.12;42.71;101685.59;5079717;27;45346;-78
2022/06/16 08:48:22;;;;;;;;;14.00;14.00;;;;;24.19;41.99;101694.44;5080616;27;45607;-78
2022/06/16 08:50:56;;;;;;;;;13.33;12.00;;;;;24.23;41.78;101695.59;5078746;27;46087;-79
2022/06/16 08:53:53;;;;;;;;;10.50;10.00;;;;;24.29;39.91;101689.19;5080885;27;45283;-77
2022/06/16 08:56:28;;;;;;;;;11.67;10.67;;;;;24.32;40.69;101691.44;5061341;27;45488;-78
2022/06/16 08:59:18;;;;;;;;;10.00;9.33;;;;;24.42;40.42;101700.84;5090514;27;46149;-78
2022/06/16 09:02:15;;;;;;;;;9.00;9.00;;;;;24.49;37.81;101700.66;5075489;28;46114;-78
2022/06/16 09:04:46;;;;;;;;;11.67;11.67;;;;;24.50;38.79;101700.41;5074736;27;45323;-79
2022/06/16 09:07:19;;;;;;;;;10.67;9.33;;;;;24.58;40.01;101678.25;5083068;28;45400;-79
2022/06/16 09:12:47;;;;;;;;;8.00;8.00;;;;;24.78;38.69;101693.25;5084431;28;45817;-78
2022/06/16 09:15:42;;;;;;;;;11.00;11.00;;;;;24.89;37.80;101697.00;5081034;27;45427;-80
2022/06/16 09:18:30;;;;;;;;;9.00;8.67;;;;;24.98;38.30;101705.56;5082604;27;45291;-79
2022/06/16 09:21:04;;;;;;;;;10.00;9.00;;;;;24.99;37.73;101709.91;5083943;28;45374;-80
2022/06/16 09:23:41;;;;;;;;;8.00;8.00;;;;;25.05;38.68;101705.41;5063574;28;46574;-77
2022/06/16 09:26:28;;;;;;;;;10.00;10.00;;;;;25.11;38.49;101703.56;5080126;28;45354;-77
2022/06/16 09:29:01;;;;;;;;;9.33;9.33;;;;;25.21;37.80;101687.41;5081590;27;45264;-78
2022/06/16 09:31:53;;;;;;;;;9.33;9.00;;;;;25.33;37.87;101699.00;5097391;27;46129;-77
2022/06/16 09:34:35;;;;;;;;;11.33;10.67;;;;;25.36;37.66;101688.66;5081269;27;45338;-78
2022/06/16 09:37:09;;;;;;;;;7.67;7.67;;;;;25.52;36.19;101697.84;5081584;27;45310;-77
2022/06/16 09:39:45;;;;;;;;;9.00;8.67;;;;;25.66;37.88;101704.63;5081404;28;45295;-76
2022/06/16 09:42:33;;;;;;;;;7.00;7.00;;;;;25.81;37.44;101717.59;5081160;27;45290;-78
2022/06/16 09:45:18;;;;;;;;;9.00;9.00;;;;;25.89;35.84;101701.88;5081404;27;45968;-78
2022/06/16 09:47:51;;;;;;;;;8.00;8.00;;;;;25.95;35.97;101701.66;5097066;27;45388;-77
2022/06/16 09:50:31;;;;;;;;;10.67;9.00;;;;;26.03;36.39;101714.00;5081216;28;45461;-77
2022/06/16 09:53:08;;;;;;;;;8.33;8.33;;;;;26.11;35.01;101707.28;5096745;27;45914;-78
2022/06/16 09:55:41;;;;;;;;;6.67;6.67;;;;;26.25;35.01;101712.31;5081335;27;45434;-78
2022/06/16 09:58:33;;;;;;;;;7.67;7.33;;;;;26.34;33.96;101708.88;5080737;28;45309;-78
2022/06/16 10:01:06;;;;;;;;;6.00;6.00;;;;;26.36;33.35;101695.00;5080042;28;45458;-78
2022/06/16 10:03:42;;;;;;;;;7.00;7.00;;;;;26.46;33.16;101703.28;5081428;27;45318;-77
2022/06/16 10:06:55;;;;;;;;;9.33;9.33;;;;;26.59;33.65;101699.31;5089808;27;45325;-78
2022/06/16 10:09:32;;;;;;;;;24.67;23.67;;;;;26.68;32.93;101687.91;5039425;28;45525;-76
2022/06/16 10:12:19;;;;;;;;;14.67;11.33;;;;;26.77;32.34;101683.63;5040173;28;45266;-77
2022/06/16 10:15:04;;;;;;;;;10.00;9.00;;;;;26.85;32.77;101685.84;5039874;28;46127;-75
2022/06/16 10:17:32;;;;;;;;;4.67;4.67;;;;;26.91;33.15;101677.72;5041367;28;45245;-74
2022/06/16 10:19:59;;;;;;;;;6.00;6.00;;;;;27.02;32.62;101675.91;5056500;28;45718;-78
2022/06/16 10:22:25;;;;;;;;;10.67;8.00;;;;;27.14;32.65;101659.34;5054808;28;45498;-77
2022/06/16 10:25:02;;;;;;;;;64.50;50.75;;;;;27.35;32.55;101668.41;5035714;28;46470;-77
2022/06/16 10:27:45;;;;;;;;;33.67;30.33;;;;;27.58;32.54;101666.34;5053779;28;47306;-75
2022/06/16 10:30:25;;;;;;;;;19.00;17.33;;;;;27.77;32.90;101674.88;5039139;28;45407;-75
2022/06/16 10:33:27;;;;;;;;;14.33;13.67;;;;;27.94;31.61;101682.03;5040792;28;45495;-79
2022/06/16 10:36:15;;;;;;;;;12.00;12.00;;;;;28.06;32.35;101681.78;5040271;28;45543;-77
2022/06/16 10:39:05;;;;;;;;;30.33;28.33;;;;;28.16;32.03;101680.97;5040549;28;46154;-78
2022/06/16 10:41:40;;;;;;;;;7.33;7.33;;;;;28.36;31.73;101688.41;5039990;28;45225;-78
2022/06/16 10:44:13;;;;;;;;;7.67;7.67;;;;;28.53;31.09;101677.19;5040137;28;45302;-78
2022/06/16 10:46:50;;;;;;;;;18.33;14.67;;;;;28.73;31.03;101686.47;5040341;28;45221;-77
2022/06/16 10:49:20;;;;;;;;;9.33;9.33;;;;;28.84;30.67;101676.31;5041104;28;45392;-78
2022/06/16 10:51:51;;;;;;;;;6.67;6.33;;;;;29.04;29.78;101680.97;5040554;28;45296;-79
2022/06/16 10:54:29;;;;;;;;;14.67;14.00;;;;;29.21;29.65;101674.34;5041076;28;45220;-79
2022/06/16 10:57:16;;;;;;;;;28.00;27.33;;;;;29.39;29.23;101672.09;5024643;28;45482;-79
2022/06/16 11:00:06;;;;;;;;;36.67;31.67;;;;;29.53;29.40;101673.13;5018871;28;45475;-78
2022/06/16 11:02:35;;;;;;;;;54.50;42.50;;;;;29.72;29.79;101681.53;5026322;28;45325;-78
2022/06/16 11:05:12;;;;;;;;;12.67;12.33;;;;;29.90;28.78;101681.16;5039214;28;46455;-79
2022/06/16 11:07:41;;;;;;;;;12.33;11.67;;;;;30.08;29.55;101674.19;5043713;28;45249;-77
2022/06/16 11:10:31;;;;;;;;;42.67;35.67;;;;;30.29;28.92;101672.16;5080696;28;45343;-77
2022/06/16 11:12:57;;;;;;;;;36.00;30.33;;;;;30.43;29.52;101668.75;5083343;28;45282;-76
2022/06/16 11:15:32;;;;;;;;;154.33;145.33;;;;;30.60;29.45;101680.09;5079829;28;45402;-77
2022/06/16 11:18:01;;;;;;;;;24.67;23.33;;;;;30.76;28.47;101674.47;5078491;27;45751;-75
2022/06/16 11:20:34;;;;;;;;;15.67;15.00;;;;;30.84;28.90;101684.84;5077283;27;45630;-76
2022/06/16 11:22:59;;;;;;;;;24.67;24.00;;;;;30.91;28.89;101683.69;5078347;28;45596;-78
2022/06/16 11:25:35;;;;;;;;;9.33;9.00;;;;;30.98;28.36;101673.16;5078030;27;45409;-78
2022/06/16 11:28:04;;;;;;;;;12.00;12.00;;;;;31.05;28.95;101670.06;5077874;28;46184;-78
2022/06/16 11:30:39;;;;;;;;;18.00;17.67;;;;;31.16;27.85;101670.78;5079484;27;46078;-78
2022/06/16 11:34:06;;;;;;;;;28.67;27.00;;;;;31.20;27.74;101661.66;5078692;28;45329;-78
2022/06/16 11:36:08;;;;;;;;;66.75;54.00;;;;;31.45;27.53;101667.16;5070741;27;45360;-78
2022/06/16 11:38:47;;;;;;;;;39.67;32.67;;;;;31.52;27.45;101653.88;5071817;28;45405;-77
2022/06/16 11:41:15;;;;;;;;;12.33;12.33;;;;;31.68;27.07;101667.38;5093048;27;48457;-77
2022/06/16 11:43:50;;;;;;;;;11.33;11.00;;;;;31.79;27.32;101663.38;5082620;27;45519;-77
2022/06/16 11:46:24;;;;;;;;;13.67;12.67;;;;;31.92;26.27;101682.97;5083418;27;45684;-76
2022/06/16 11:49:05;;;;;;;;;57.25;45.75;;;;;31.91;26.50;101692.31;5077258;27;46276;-75
2022/06/16 11:51:33;;;;;;;;;60.75;49.25;;;;;31.95;26.38;101690.63;5094561;27;48111;-77